createdAt,value
2017-10-17T00:00:04.659Z,90.14
2017-10-17T00:01:04.637Z,89.86
2017-10-17T00:02:04.613Z,90.53
2017-10-17T00:03:04.596Z,90.33
2017-10-17T00:04:04.571Z,90.43
2017-10-17T00:05:04.551Z,90.43
2017-10-17T00:06:04.536Z,90.05
2017-10-17T00:07:04.509Z,90.53
2017-10-17T00:08:04.483Z,90.62
2017-10-17T00:09:04.467Z,90.43
2017-10-17T00:10:04.441Z,90.62
2017-10-17T00:11:04.420Z,90.33
2017-10-17T00:12:04.400Z,90.62
2017-10-17T00:13:04.376Z,90.62
2017-10-17T00:14:04.040Z,90.62
2017-10-17T00:15:04.331Z,90.62
2017-10-17T00:16:04.313Z,90.62
2017-10-17T00:17:04.292Z,90.62
2017-10-17T00:18:04.281Z,90.62
2017-10-17T00:19:04.254Z,90.23
2017-10-17T00:20:04.231Z,90.43
2017-10-17T00:21:04.209Z,90.33
2017-10-17T00:22:04.185Z,90.58
2017-10-17T00:23:04.168Z,90.14
2017-10-17T00:24:04.144Z,90.14
2017-10-17T00:25:04.123Z,90.23
2017-10-17T00:26:04.106Z,90.09
2017-10-17T00:27:04.084Z,90.23
2017-10-17T00:28:04.058Z,90.19
2017-10-17T00:29:04.042Z,90.39
2017-10-17T00:30:04.015Z,90.39
2017-10-17T00:31:04.000Z,90.19
2017-10-17T00:32:03.975Z,90.33
2017-10-17T00:33:03.952Z,90.43
2017-10-17T00:34:03.947Z,90.43
2017-10-17T00:35:03.587Z,90.29
2017-10-17T00:36:03.891Z,89.86
2017-10-17T00:37:03.871Z,89.81
2017-10-17T00:38:03.844Z,90.19
2017-10-17T00:39:03.822Z,90.77
2017-10-17T00:40:03.806Z,89.81
2017-10-17T00:41:03.779Z,89.86
2017-10-17T00:42:03.760Z,90
2017-10-17T00:43:03.739Z,90
2017-10-17T00:44:03.725Z,90.58
2017-10-17T00:45:03.723Z,90.05
2017-10-17T00:46:03.678Z,90.39
2017-10-17T00:47:03.650Z,90.05
2017-10-17T00:48:03.635Z,90.77
2017-10-17T00:49:03.613Z,90
2017-10-17T00:50:03.590Z,90.77
2017-10-17T00:51:03.569Z,90.86
2017-10-17T00:52:03.544Z,90.58
2017-10-17T00:53:03.528Z,90.77
2017-10-17T00:54:03.503Z,90.77
2017-10-17T00:55:03.487Z,90.77
2017-10-17T00:56:03.463Z,90.86
2017-10-17T00:57:03.440Z,90.86
2017-10-17T00:58:03.418Z,90.86
2017-10-17T00:59:03.400Z,90.48
2017-10-17T01:00:03.381Z,90.48
2017-10-17T01:01:03.360Z,90.48
2017-10-17T01:02:03.344Z,90.67
2017-10-17T01:03:03.338Z,90.48
2017-10-17T01:04:03.290Z,90.48
2017-10-17T01:05:03.270Z,90.58
2017-10-17T01:06:03.243Z,90.58
2017-10-17T01:07:03.230Z,90.48
2017-10-17T01:08:03.205Z,90.67
2017-10-17T01:09:03.183Z,90.67
2017-10-17T01:10:03.169Z,90.77
2017-10-17T01:11:03.143Z,90.48
2017-10-17T01:12:03.120Z,90.39
2017-10-17T01:13:03.095Z,90.29
2017-10-17T01:14:03.083Z,90.29
2017-10-17T01:15:03.055Z,90.29
2017-10-17T01:16:03.037Z,90.48
2017-10-17T01:17:03.012Z,90.29
2017-10-17T01:18:03.000Z,90.48
2017-10-17T01:19:02.973Z,90.48
2017-10-17T01:20:02.950Z,90.48
2017-10-17T01:21:02.921Z,90.48
2017-10-17T01:22:02.907Z,90.63
2017-10-17T01:23:02.883Z,90.63
2017-10-17T01:24:02.871Z,91.05
2017-10-17T01:25:02.837Z,90.34
2017-10-17T01:26:02.818Z,90.53
2017-10-17T01:27:02.801Z,91.11
2017-10-17T01:28:02.775Z,91.01
2017-10-17T01:29:02.760Z,91.11
2017-10-17T01:30:02.732Z,90.91
2017-10-17T01:31:02.711Z,90.91
2017-10-17T01:32:02.696Z,90.91
2017-10-17T01:33:02.672Z,90.91
2017-10-17T01:34:02.648Z,91.01
2017-10-17T01:35:02.626Z,90.72
2017-10-17T01:36:02.611Z,90.82
2017-10-17T01:37:02.583Z,90.91
2017-10-17T01:38:02.563Z,90.82
2017-10-17T01:39:02.541Z,90.82
2017-10-17T01:40:02.522Z,90.63
2017-10-17T01:41:02.506Z,90.44
2017-10-17T01:42:02.478Z,90.63
2017-10-17T01:43:02.458Z,90.63
2017-10-17T01:44:02.437Z,90.63
2017-10-17T01:45:02.414Z,90.82
2017-10-17T01:46:02.071Z,90.82
2017-10-17T01:47:02.369Z,90.63
2017-10-17T01:48:02.352Z,90.63
2017-10-17T01:49:02.329Z,90.72
2017-10-17T01:50:02.314Z,90.72
2017-10-17T01:51:02.284Z,90.63
2017-10-17T01:52:02.261Z,90.82
2017-10-17T01:53:01.920Z,90.72
2017-10-17T01:54:02.222Z,90.63
2017-10-17T01:55:02.199Z,90.82
2017-10-17T01:56:02.173Z,90.53
2017-10-17T01:57:02.155Z,91.39
2017-10-17T01:58:02.129Z,90.63
2017-10-17T01:59:02.114Z,90.63
2017-10-17T02:00:02.089Z,91.49
2017-10-17T02:01:02.072Z,91.39
2017-10-17T02:02:02.049Z,91.58
2017-10-17T02:03:02.025Z,90.82
2017-10-17T02:04:02.009Z,90.72
2017-10-17T02:05:01.987Z,91.58
2017-10-17T02:06:01.959Z,91.58
2017-10-17T02:07:01.939Z,91.01
2017-10-17T02:08:01.921Z,91.58
2017-10-17T02:09:01.896Z,91.58
2017-10-17T02:10:01.873Z,91.01
2017-10-17T02:11:01.852Z,90.96
2017-10-17T02:12:01.831Z,91.01
2017-10-17T02:13:01.810Z,91.39
2017-10-17T02:14:01.471Z,91.06
2017-10-17T02:15:01.773Z,91.01
2017-10-17T02:16:01.741Z,91.01
2017-10-17T02:17:01.720Z,91.01
2017-10-17T02:18:01.700Z,91.3
2017-10-17T02:19:01.683Z,90.96
2017-10-17T02:20:01.656Z,91.25
2017-10-17T02:21:01.638Z,91.06
2017-10-17T02:22:01.624Z,91.35
2017-10-17T02:23:01.604Z,90.72
2017-10-17T02:24:01.572Z,91.25
2017-10-17T02:25:01.548Z,91.16
2017-10-17T02:26:01.533Z,91.25
2017-10-17T02:27:01.514Z,90.87
2017-10-17T02:28:01.488Z,90.77
2017-10-17T02:29:01.460Z,90.87
2017-10-17T02:30:01.443Z,90.77
2017-10-17T02:31:01.421Z,90.96
2017-10-17T02:32:01.399Z,90.87
2017-10-17T02:33:01.376Z,90.96
2017-10-17T02:34:01.361Z,90.96
2017-10-17T02:35:01.331Z,90.96
2017-10-17T02:36:01.313Z,91.06
2017-10-17T02:37:01.303Z,91.06
2017-10-17T02:38:01.284Z,90.87
2017-10-17T02:39:01.247Z,91.16
2017-10-17T02:40:01.231Z,91.06
2017-10-17T02:41:01.202Z,90.96
2017-10-17T02:42:01.185Z,90.96
2017-10-17T02:43:01.166Z,91.06
2017-10-17T02:44:01.145Z,91.16
2017-10-17T02:45:01.114Z,90.67
2017-10-17T02:46:01.096Z,90.58
2017-10-17T02:47:01.082Z,91.06
2017-10-17T02:48:01.062Z,91.06
2017-10-17T02:49:01.032Z,91.06
2017-10-17T02:50:01.009Z,90.67
2017-10-17T02:51:00.985Z,91.06
2017-10-17T02:52:00.964Z,90.67
2017-10-17T02:53:00.948Z,90.67
2017-10-17T02:54:00.922Z,91.16
2017-10-17T02:55:00.582Z,90.87
2017-10-17T02:56:00.879Z,90.58
2017-10-17T02:57:00.864Z,90.67
2017-10-17T02:58:00.839Z,90.67
2017-10-17T02:59:00.816Z,90.58
2017-10-17T03:00:00.792Z,90.87
2017-10-17T03:01:00.771Z,90.87
2017-10-17T03:02:00.748Z,90.77
2017-10-17T03:03:00.731Z,90.67
2017-10-17T03:04:00.714Z,90.87
2017-10-17T03:05:00.695Z,90.67
2017-10-17T03:06:00.663Z,90.67
2017-10-17T03:07:00.644Z,90.77
2017-10-17T03:08:00.618Z,90.87
2017-10-17T03:09:00.601Z,90.67
2017-10-17T03:10:00.263Z,90.87
2017-10-17T03:11:00.568Z,90.67
2017-10-17T03:12:00.534Z,90.87
2017-10-17T03:13:00.523Z,90.87
2017-10-17T03:14:00.491Z,90.67
2017-10-17T03:15:00.468Z,90.87
2017-10-17T03:16:00.447Z,90.87
2017-10-17T03:17:00.430Z,90.67
2017-10-17T03:18:00.402Z,91.06
2017-10-17T03:19:00.391Z,90.96
2017-10-17T03:20:00.362Z,90.96
2017-10-17T03:21:00.338Z,90.96
2017-10-17T03:22:00.318Z,90.87
2017-10-17T03:23:00.292Z,90.87
2017-10-17T03:24:00.287Z,90.96
2017-10-17T03:25:00.260Z,90.96
2017-10-17T03:26:00.231Z,91.06
2017-10-17T03:27:00.211Z,91.16
2017-10-17T03:28:00.188Z,90.96
2017-10-17T03:29:00.173Z,90.96
2017-10-17T03:30:00.144Z,90.96
2017-10-17T03:31:00.123Z,91.06
2017-10-17T03:32:00.106Z,90.96
2017-10-17T03:33:00.078Z,90.96
2017-10-17T03:34:00.059Z,90.96
2017-10-17T03:35:00.042Z,90.87
2017-10-17T03:36:00.021Z,90.87
2017-10-17T03:36:59.989Z,90.96
2017-10-17T03:37:59.975Z,90.87
2017-10-17T03:38:59.955Z,90.87
2017-10-17T03:39:59.928Z,90.96
2017-10-17T03:40:59.907Z,91.16
2017-10-17T03:41:59.885Z,90.87
2017-10-17T03:42:59.870Z,90.67
2017-10-17T03:43:59.838Z,91.06
2017-10-17T03:44:59.814Z,90.87
2017-10-17T03:45:59.804Z,90.87
2017-10-17T03:46:59.774Z,90.87
2017-10-17T03:47:59.752Z,91.16
2017-10-17T03:48:59.733Z,91.06
2017-10-17T03:49:59.707Z,90.67
2017-10-17T03:50:59.688Z,91.44
2017-10-17T03:51:59.662Z,91.02
2017-10-17T03:52:59.647Z,90.92
2017-10-17T03:53:59.621Z,91.02
2017-10-17T03:54:59.599Z,91.02
2017-10-17T03:55:59.578Z,91.06
2017-10-17T03:56:59.555Z,91.2
2017-10-17T03:57:59.588Z,91.02
2017-10-17T03:58:59.515Z,91.11
2017-10-17T03:59:59.493Z,90.92
2017-10-17T04:00:59.472Z,90.92
2017-10-17T04:01:59.457Z,91.39
2017-10-17T04:02:59.428Z,91.02
2017-10-17T04:03:59.428Z,90.92
2017-10-17T04:04:59.382Z,91.11
2017-10-17T04:05:59.368Z,90.92
2017-10-17T04:06:59.341Z,91.02
2017-10-17T04:07:59.328Z,91.02
2017-10-17T04:08:59.296Z,91.02
2017-10-17T04:09:59.278Z,90.92
2017-10-17T04:10:59.263Z,90.82
2017-10-17T04:11:59.235Z,91.02
2017-10-17T04:12:59.212Z,90.82
2017-10-17T04:13:59.188Z,90.82
2017-10-17T04:14:59.167Z,90.82
2017-10-17T04:15:59.154Z,90.82
2017-10-17T04:16:59.124Z,90.82
2017-10-17T04:17:59.099Z,91.02
2017-10-17T04:18:59.078Z,90.82
2017-10-17T04:19:59.094Z,91.02
2017-10-17T04:20:59.036Z,90.73
2017-10-17T04:21:59.019Z,90.73
2017-10-17T04:22:58.992Z,91.11
2017-10-17T04:23:58.977Z,90.82
2017-10-17T04:24:58.955Z,90.82
2017-10-17T04:25:58.927Z,90.73
2017-10-17T04:26:58.911Z,90.82
2017-10-17T04:27:58.879Z,90.82
2017-10-17T04:28:58.858Z,91.02
2017-10-17T04:29:58.838Z,91.02
2017-10-17T04:30:58.817Z,91.02
2017-10-17T04:31:58.804Z,91.02
2017-10-17T04:32:58.777Z,90.82
2017-10-17T04:33:58.748Z,90.82
2017-10-17T04:34:58.729Z,90.82
2017-10-17T04:35:58.708Z,91.02
2017-10-17T04:36:58.688Z,91.11
2017-10-17T04:37:58.661Z,91.11
2017-10-17T04:38:58.639Z,91.02
2017-10-17T04:39:58.688Z,90.63
2017-10-17T04:40:58.603Z,90.73
2017-10-17T04:41:58.581Z,90.73
2017-10-17T04:42:58.558Z,90.73
2017-10-17T04:43:58.533Z,90.73
2017-10-17T04:44:58.513Z,90.73
2017-10-17T04:45:58.492Z,90.92
2017-10-17T04:46:58.468Z,90.82
2017-10-17T04:47:58.459Z,90.92
2017-10-17T04:48:58.428Z,91.02
2017-10-17T04:49:58.453Z,90.92
2017-10-17T04:50:58.381Z,90.82
2017-10-17T04:51:58.358Z,91.02
2017-10-17T04:52:58.343Z,90.92
2017-10-17T04:53:58.321Z,91.2
2017-10-17T04:54:58.292Z,90.82
2017-10-17T04:55:58.283Z,90.82
2017-10-17T04:56:58.301Z,91.2
2017-10-17T04:57:58.241Z,91.2
2017-10-17T04:58:58.206Z,91.2
2017-10-17T04:59:58.185Z,90.92
2017-10-17T05:00:58.167Z,90.73
2017-10-17T05:01:58.142Z,91.02
2017-10-17T05:02:58.123Z,91.2
2017-10-17T05:03:58.099Z,90.92
2017-10-17T05:04:58.080Z,90.73
2017-10-17T05:05:58.053Z,90.82
2017-10-17T05:06:58.062Z,90.82
2017-10-17T05:07:58.009Z,90.34
2017-10-17T05:08:57.987Z,90.92
2017-10-17T05:09:57.976Z,90.92
2017-10-17T05:10:57.941Z,91.11
2017-10-17T05:11:57.601Z,90.63
2017-10-17T05:12:57.903Z,90.82
2017-10-17T05:13:57.883Z,91.02
2017-10-17T05:14:57.855Z,90.82
2017-10-17T05:15:57.841Z,90.82
2017-10-17T05:16:57.816Z,90.63
2017-10-17T05:17:57.795Z,90.82
2017-10-17T05:18:57.819Z,90.63
2017-10-17T05:19:57.751Z,90.82
2017-10-17T05:20:57.780Z,91.11
2017-10-17T05:21:57.706Z,90.67
2017-10-17T05:22:57.686Z,90.87
2017-10-17T05:23:57.663Z,90.73
2017-10-17T05:24:57.648Z,91.11
2017-10-17T05:25:57.619Z,90.92
2017-10-17T05:26:57.646Z,90.34
2017-10-17T05:27:57.575Z,90.96
2017-10-17T05:28:57.555Z,90.92
2017-10-17T05:29:57.531Z,90.82
2017-10-17T05:30:57.505Z,91.02
2017-10-17T05:31:57.485Z,90.82
2017-10-17T05:32:57.462Z,90.44
2017-10-17T05:33:57.445Z,90.82
2017-10-17T05:34:57.428Z,90.82
2017-10-17T05:35:57.409Z,90.82
2017-10-17T05:36:57.379Z,90.73
2017-10-17T05:37:57.362Z,90.63
2017-10-17T05:38:57.341Z,90.82
2017-10-17T05:39:57.313Z,91.2
2017-10-17T05:40:57.292Z,90.82
2017-10-17T05:41:57.272Z,91.2
2017-10-17T05:42:57.246Z,90.82
2017-10-17T05:43:57.229Z,90.82
2017-10-17T05:44:57.213Z,91.2
2017-10-17T05:45:57.184Z,91.02
2017-10-17T05:46:57.159Z,91.02
2017-10-17T05:47:57.144Z,90.82
2017-10-17T05:48:57.117Z,91.2
2017-10-17T05:49:57.102Z,91.02
2017-10-17T05:50:57.072Z,91.2
2017-10-17T05:51:57.045Z,91.02
2017-10-17T05:52:57.033Z,90.82
2017-10-17T05:53:57.012Z,90.82
2017-10-17T05:54:56.987Z,91.02
2017-10-17T05:55:56.971Z,90.92
2017-10-17T05:56:56.944Z,90.82
2017-10-17T05:57:56.929Z,90.82
2017-10-17T05:58:56.899Z,90.53
2017-10-17T05:59:56.885Z,91.02
2017-10-17T06:00:56.852Z,90.82
2017-10-17T06:01:56.837Z,90.82
2017-10-17T06:02:56.818Z,91.02
2017-10-17T06:03:56.796Z,90.82
2017-10-17T06:04:56.769Z,90.82
2017-10-17T06:05:56.742Z,90.82
2017-10-17T06:06:56.723Z,91.02
2017-10-17T06:07:56.714Z,90.82
2017-10-17T06:08:56.684Z,91.02
2017-10-17T06:09:56.653Z,91.02
2017-10-17T06:10:56.634Z,90.44
2017-10-17T06:11:56.615Z,90.73
2017-10-17T06:12:56.589Z,90.34
2017-10-17T06:13:56.568Z,91.02
2017-10-17T06:14:56.547Z,91.11
2017-10-17T06:15:56.206Z,90.92
2017-10-17T06:16:56.506Z,90.82
2017-10-17T06:17:56.491Z,90.16
2017-10-17T06:18:56.463Z,90.82
2017-10-17T06:19:56.442Z,90.92
2017-10-17T06:20:56.416Z,91.02
2017-10-17T06:21:56.394Z,91.02
2017-10-17T06:22:56.374Z,90.34
2017-10-17T06:23:56.356Z,91.02
2017-10-17T06:24:56.337Z,90.25
2017-10-17T06:25:56.307Z,90.25
2017-10-17T06:26:56.287Z,91.02
2017-10-17T06:27:56.263Z,90.82
2017-10-17T06:28:56.243Z,90.82
2017-10-17T06:29:56.219Z,90.92
2017-10-17T06:30:56.198Z,90.73
2017-10-17T06:31:56.175Z,91.02
2017-10-17T06:32:56.155Z,90.92
2017-10-17T06:33:56.137Z,90.92
2017-10-17T06:34:56.119Z,90.44
2017-10-17T06:35:56.090Z,90.73
2017-10-17T06:36:56.070Z,91.02
2017-10-17T06:37:56.057Z,90.63
2017-10-17T06:38:56.022Z,91.02
2017-10-17T06:39:56.005Z,90.92
2017-10-17T06:40:55.980Z,90.44
2017-10-17T06:41:55.953Z,91.02
2017-10-17T06:42:55.943Z,90.92
2017-10-17T06:43:55.913Z,90.82
2017-10-17T06:44:55.895Z,90.34
2017-10-17T06:45:55.876Z,90.44
2017-10-17T06:46:55.858Z,90.44
2017-10-17T06:47:55.821Z,90.48
2017-10-17T06:48:55.804Z,90.48
2017-10-17T06:49:55.786Z,90.39
2017-10-17T06:50:55.761Z,90.3
2017-10-17T06:51:55.739Z,90.48
2017-10-17T06:52:55.720Z,90.48
2017-10-17T06:53:55.703Z,90.67
2017-10-17T06:54:55.676Z,90.48
2017-10-17T06:55:55.652Z,90.67
2017-10-17T06:56:55.637Z,90.87
2017-10-17T06:57:55.607Z,90.48
2017-10-17T06:58:55.586Z,90.48
2017-10-17T06:59:55.565Z,90.67
2017-10-17T07:00:55.549Z,90.96
2017-10-17T07:01:55.522Z,90.96
2017-10-17T07:02:55.502Z,90.48
2017-10-17T07:03:55.494Z,91.06
2017-10-17T07:04:55.461Z,90.87
2017-10-17T07:05:55.452Z,90.96
2017-10-17T07:06:55.416Z,90.77
2017-10-17T07:07:55.395Z,91.06
2017-10-17T07:08:55.372Z,90.87
2017-10-17T07:09:55.354Z,90.87
2017-10-17T07:10:55.333Z,90.53
2017-10-17T07:11:55.306Z,91.01
2017-10-17T07:12:55.290Z,90.82
2017-10-17T07:13:55.263Z,90.72
2017-10-17T07:14:55.247Z,90.72
2017-10-17T07:15:55.220Z,90.72
2017-10-17T07:16:55.202Z,90.72
2017-10-17T07:17:55.190Z,90.82
2017-10-17T07:18:55.158Z,90.91
2017-10-17T07:19:55.132Z,90.72
2017-10-17T07:20:55.126Z,91.01
2017-10-17T07:21:55.094Z,91.2
2017-10-17T07:22:55.070Z,91.11
2017-10-17T07:23:55.054Z,90.91
2017-10-17T07:24:55.027Z,91.01
2017-10-17T07:25:55.005Z,91.11
2017-10-17T07:26:54.988Z,91.01
2017-10-17T07:27:54.964Z,91.11
2017-10-17T07:28:54.941Z,91.11
2017-10-17T07:29:54.924Z,91.15
2017-10-17T07:30:54.908Z,91.34
2017-10-17T07:31:54.876Z,91.34
2017-10-17T07:32:54.859Z,91.05
2017-10-17T07:33:54.845Z,91.15
2017-10-17T07:34:54.830Z,90.77
2017-10-17T07:35:54.796Z,90.58
2017-10-17T07:36:54.769Z,90.96
2017-10-17T07:37:54.752Z,90.77
2017-10-17T07:38:54.410Z,90.77
2017-10-17T07:39:54.715Z,91.05
2017-10-17T07:40:54.687Z,90.77
2017-10-17T07:41:54.664Z,91.05
2017-10-17T07:42:54.650Z,91.15
2017-10-17T07:43:54.622Z,90.96
2017-10-17T07:44:54.606Z,91.05
2017-10-17T07:45:54.588Z,90.96
2017-10-17T07:46:54.565Z,91.25
2017-10-17T07:47:54.538Z,91.25
2017-10-17T07:48:54.521Z,90.67
2017-10-17T07:49:54.499Z,90.58
2017-10-17T07:50:54.478Z,91.05
2017-10-17T07:51:54.451Z,90.81
2017-10-17T07:52:54.434Z,91.1
2017-10-17T07:53:54.409Z,91.15
2017-10-17T07:54:54.073Z,90.81
2017-10-17T07:55:54.369Z,91.05
2017-10-17T07:56:54.345Z,90.77
2017-10-17T07:57:54.332Z,90.67
2017-10-17T07:58:54.307Z,90.86
2017-10-17T07:59:54.290Z,90.77
2017-10-17T08:00:54.265Z,91.25
2017-10-17T08:01:54.253Z,91.19
2017-10-17T08:02:54.223Z,91.1
2017-10-17T08:03:54.203Z,91.15
2017-10-17T08:04:54.181Z,91.15
2017-10-17T08:05:54.161Z,90.96
2017-10-17T08:06:54.141Z,90.86
2017-10-17T08:07:54.115Z,91.29
2017-10-17T08:08:54.097Z,91.29
2017-10-17T08:09:54.075Z,91.19
2017-10-17T08:10:54.054Z,91.29
2017-10-17T08:11:54.038Z,91.39
2017-10-17T08:12:54.014Z,91.19
2017-10-17T08:13:53.995Z,91.39
2017-10-17T08:14:53.979Z,90.91
2017-10-17T08:15:53.952Z,90.86
2017-10-17T08:16:53.933Z,90.76
2017-10-17T08:17:53.911Z,90.76
2017-10-17T08:18:53.897Z,91.14
2017-10-17T08:19:53.873Z,90.86
2017-10-17T08:20:53.846Z,91.05
2017-10-17T08:21:53.829Z,90.76
2017-10-17T08:22:53.822Z,91.24
2017-10-17T08:23:53.786Z,90.38
2017-10-17T08:24:53.767Z,90.38
2017-10-17T08:25:53.746Z,90.38
2017-10-17T08:26:53.728Z,90.67
2017-10-17T08:27:53.703Z,90.67
2017-10-17T08:28:53.682Z,90.47
2017-10-17T08:29:53.664Z,90.81
2017-10-17T08:30:53.644Z,90.57
2017-10-17T08:31:53.621Z,90.38
2017-10-17T08:32:53.615Z,90.42
2017-10-17T08:33:53.584Z,90.76
2017-10-17T08:34:53.560Z,90.86
2017-10-17T08:35:53.548Z,90.47
2017-10-17T08:36:53.517Z,90.57
2017-10-17T08:37:53.499Z,90.86
2017-10-17T08:38:53.478Z,90.67
2017-10-17T08:39:53.457Z,90.67
2017-10-17T08:40:53.439Z,90.67
2017-10-17T08:41:53.420Z,91.14
2017-10-17T08:42:53.402Z,90.67
2017-10-17T08:43:53.388Z,90.95
2017-10-17T08:44:53.365Z,90.86
2017-10-17T08:45:53.338Z,90.33
2017-10-17T08:46:53.324Z,90.86
2017-10-17T08:47:53.302Z,90.38
2017-10-17T08:48:53.283Z,90.47
2017-10-17T08:49:53.259Z,90.33
2017-10-17T08:50:53.231Z,90.14
2017-10-17T08:51:53.216Z,90.52
2017-10-17T08:52:53.189Z,90.52
2017-10-17T08:53:53.172Z,90.61
2017-10-17T08:54:53.152Z,90.61
2017-10-17T08:55:53.146Z,90.9
2017-10-17T08:56:53.120Z,90.81
2017-10-17T08:57:53.149Z,90.23
2017-10-17T08:58:53.068Z,90.75
2017-10-17T08:59:52.733Z,90.81
2017-10-17T09:00:53.036Z,90.75
2017-10-17T09:01:53.016Z,90.47
2017-10-17T09:02:52.989Z,90.56
2017-10-17T09:03:52.971Z,90.52
2017-10-17T09:04:52.942Z,90.56
2017-10-17T09:05:52.930Z,90.81
2017-10-17T09:06:52.914Z,90.66
2017-10-17T09:07:52.890Z,90.66
2017-10-17T09:08:52.868Z,90.85
2017-10-17T09:09:52.846Z,90.85
2017-10-17T09:10:52.834Z,90.85
2017-10-17T09:11:52.492Z,91.05
2017-10-17T09:12:52.793Z,90.37
2017-10-17T09:13:52.774Z,90.56
2017-10-17T09:14:52.747Z,90.56
2017-10-17T09:15:52.723Z,90.56
2017-10-17T09:16:52.705Z,90.18
2017-10-17T09:17:52.692Z,90.37
2017-10-17T09:18:52.674Z,90.37
2017-10-17T09:19:52.662Z,90.18
2017-10-17T09:20:52.627Z,90.18
2017-10-17T09:21:52.610Z,89.99
2017-10-17T09:22:52.585Z,89.99
2017-10-17T09:23:52.571Z,89.79
2017-10-17T09:24:52.544Z,90.03
2017-10-17T09:25:52.537Z,89.84
2017-10-17T09:26:52.194Z,90.13
2017-10-17T09:27:52.488Z,90.13
2017-10-17T09:28:52.471Z,90.22
2017-10-17T09:29:52.446Z,90.13
2017-10-17T09:30:52.428Z,90.22
2017-10-17T09:31:52.412Z,90.22
2017-10-17T09:32:52.388Z,90.22
2017-10-17T09:33:52.365Z,90.32
2017-10-17T09:34:52.347Z,90.13
2017-10-17T09:35:52.331Z,90.13
2017-10-17T09:36:52.349Z,90.42
2017-10-17T09:37:52.283Z,90.13
2017-10-17T09:38:51.950Z,90.22
2017-10-17T09:39:52.544Z,90.32
2017-10-17T09:40:52.229Z,90.32
2017-10-17T09:41:52.204Z,90.42
2017-10-17T09:42:52.190Z,90.22
2017-10-17T09:43:52.164Z,90.32
2017-10-17T09:44:52.145Z,90.22
2017-10-17T09:45:52.128Z,90.03
2017-10-17T09:46:52.113Z,89.84
2017-10-17T09:47:52.081Z,89.84
2017-10-17T09:48:52.314Z,89.94
2017-10-17T09:49:52.045Z,89.84
2017-10-17T09:50:52.034Z,89.84
2017-10-17T09:51:52.033Z,90.13
2017-10-17T09:52:51.986Z,89.84
2017-10-17T09:53:51.969Z,89.75
2017-10-17T09:54:51.947Z,90.27
2017-10-17T09:55:51.926Z,89.94
2017-10-17T09:56:51.913Z,90.32
2017-10-17T09:57:51.894Z,89.94
2017-10-17T09:58:51.872Z,89.94
2017-10-17T09:59:51.850Z,89.55
2017-10-17T10:00:51.840Z,90.03
2017-10-17T10:01:51.807Z,90.13
2017-10-17T10:02:51.792Z,90.03
2017-10-17T10:03:51.777Z,89.94
2017-10-17T10:04:51.754Z,89.94
2017-10-17T10:05:51.732Z,89.55
2017-10-17T10:06:51.713Z,89.46
2017-10-17T10:07:51.688Z,89.75
2017-10-17T10:08:51.670Z,89.75
2017-10-17T10:09:51.651Z,89.75
2017-10-17T10:10:51.637Z,89.46
2017-10-17T10:11:51.609Z,89.84
2017-10-17T10:12:51.588Z,90.03
2017-10-17T10:13:51.573Z,89.75
2017-10-17T10:14:51.556Z,89.46
2017-10-17T10:15:51.540Z,89.75
2017-10-17T10:16:51.513Z,89.94
2017-10-17T10:17:51.498Z,89.94
2017-10-17T10:18:51.471Z,89.94
2017-10-17T10:19:51.132Z,89.89
2017-10-17T10:20:51.433Z,89.79
2017-10-17T10:21:51.407Z,89.69
2017-10-17T10:22:51.393Z,90.08
2017-10-17T10:23:51.378Z,89.5
2017-10-17T10:24:51.358Z,89.98
2017-10-17T10:25:51.334Z,89.6
2017-10-17T10:26:51.312Z,89.6
2017-10-17T10:27:51.294Z,89.89
2017-10-17T10:28:51.281Z,89.89
2017-10-17T10:29:51.290Z,89.6
2017-10-17T10:30:51.234Z,89.69
2017-10-17T10:31:51.219Z,89.69
2017-10-17T10:32:51.195Z,89.98
2017-10-17T10:33:51.174Z,89.69
2017-10-17T10:34:50.835Z,90.08
2017-10-17T10:35:51.138Z,89.6
2017-10-17T10:36:51.116Z,89.5
2017-10-17T10:37:51.104Z,89.5
2017-10-17T10:38:51.076Z,89.79
2017-10-17T10:39:51.061Z,89.31
2017-10-17T10:40:51.038Z,89.5
2017-10-17T10:41:51.024Z,89.5
2017-10-17T10:42:51.001Z,89.6
2017-10-17T10:43:50.990Z,89.4
2017-10-17T10:44:50.959Z,89.69
2017-10-17T10:45:50.940Z,89.69
2017-10-17T10:46:50.921Z,89.69
2017-10-17T10:47:50.912Z,89.36
2017-10-17T10:48:50.919Z,89.74
2017-10-17T10:49:50.865Z,89.45
2017-10-17T10:50:50.846Z,89.64
2017-10-17T10:51:50.822Z,89.16
2017-10-17T10:52:50.813Z,89.07
2017-10-17T10:53:50.784Z,89.36
2017-10-17T10:54:50.771Z,88.97
2017-10-17T10:55:50.754Z,88.97
2017-10-17T10:56:50.732Z,89.07
2017-10-17T10:57:50.710Z,89.16
2017-10-17T10:58:50.686Z,89.26
2017-10-17T10:59:50.665Z,89.07
2017-10-17T11:00:50.649Z,89.16
2017-10-17T11:01:50.317Z,89.36
2017-10-17T11:02:50.616Z,89.45
2017-10-17T11:03:50.592Z,89.45
2017-10-17T11:04:50.575Z,89.26
2017-10-17T11:05:50.556Z,89.26
2017-10-17T11:06:50.531Z,89.07
2017-10-17T11:07:50.521Z,89.07
2017-10-17T11:08:50.493Z,89.45
2017-10-17T11:09:50.474Z,89.45
2017-10-17T11:10:50.458Z,89.36
2017-10-17T11:11:50.438Z,89.45
2017-10-17T11:12:50.435Z,89.26
2017-10-17T11:13:50.399Z,89.22
2017-10-17T11:14:50.377Z,89.36
2017-10-17T11:15:50.357Z,89.26
2017-10-17T11:16:50.332Z,89.45
2017-10-17T11:17:50.317Z,89.45
2017-10-17T11:18:49.977Z,89.36
2017-10-17T11:19:50.276Z,89.26
2017-10-17T11:20:50.274Z,89.54
2017-10-17T11:21:50.246Z,89.16
2017-10-17T11:22:50.216Z,89.07
2017-10-17T11:23:50.201Z,89.26
2017-10-17T11:24:50.189Z,89.45
2017-10-17T11:25:50.161Z,89.45
2017-10-17T11:26:50.152Z,88.97
2017-10-17T11:27:50.123Z,89.5
2017-10-17T11:28:50.105Z,89.5
2017-10-17T11:29:50.087Z,88.92
2017-10-17T11:30:49.749Z,88.82
2017-10-17T11:31:50.054Z,89.21
2017-10-17T11:32:50.035Z,89.21
2017-10-17T11:33:50.008Z,88.92
2017-10-17T11:34:49.982Z,88.92
2017-10-17T11:35:50.019Z,89.5
2017-10-17T11:36:49.952Z,89.01
2017-10-17T11:37:49.927Z,89.5
2017-10-17T11:38:49.910Z,89.45
2017-10-17T11:39:49.891Z,89.07
2017-10-17T11:40:49.871Z,88.97
2017-10-17T11:41:49.852Z,89.36
2017-10-17T11:42:49.834Z,88.97
2017-10-17T11:43:49.819Z,89.26
2017-10-17T11:44:49.804Z,89.54
2017-10-17T11:45:49.768Z,89.45
2017-10-17T11:46:49.752Z,89.45
2017-10-17T11:47:49.742Z,89.36
2017-10-17T11:48:49.727Z,89.26
2017-10-17T11:49:49.692Z,89.45
2017-10-17T11:50:49.675Z,89.64
2017-10-17T11:51:49.669Z,89.64
2017-10-17T11:52:49.638Z,89.26
2017-10-17T11:53:49.628Z,89.4
2017-10-17T11:54:49.594Z,89.31
2017-10-17T11:55:49.581Z,89.02
2017-10-17T11:56:49.600Z,89.5
2017-10-17T11:57:49.537Z,89.5
2017-10-17T11:58:49.519Z,89.4
2017-10-17T11:59:49.500Z,89.12
2017-10-17T12:00:49.483Z,89.4
2017-10-17T12:01:49.456Z,89.54
2017-10-17T12:02:49.444Z,89.12
2017-10-17T12:03:49.417Z,89.22
2017-10-17T12:04:49.404Z,89.6
2017-10-17T12:05:49.380Z,89.64
2017-10-17T12:06:49.042Z,89.64
2017-10-17T12:07:49.355Z,89.26
2017-10-17T12:08:49.324Z,89.26
2017-10-17T12:09:49.299Z,89.16
2017-10-17T12:10:49.281Z,89.36
2017-10-17T12:11:49.263Z,89.07
2017-10-17T12:12:49.249Z,88.97
2017-10-17T12:13:49.268Z,89.07
2017-10-17T12:14:49.206Z,89.45
2017-10-17T12:15:49.186Z,88.97
2017-10-17T12:16:49.163Z,88.97
2017-10-17T12:17:49.142Z,88.87
2017-10-17T12:18:49.127Z,89.26
2017-10-17T12:19:49.103Z,89.07
2017-10-17T12:20:49.104Z,89.07
2017-10-17T12:21:49.065Z,89.26
2017-10-17T12:22:49.056Z,89.07
2017-10-17T12:23:49.025Z,89.07
2017-10-17T12:24:49.011Z,89.07
2017-10-17T12:25:48.985Z,89.07
2017-10-17T12:26:48.968Z,89.26
2017-10-17T12:27:48.976Z,89.07
2017-10-17T12:28:48.658Z,89.07
2017-10-17T12:29:48.905Z,89.16
2017-10-17T12:30:48.890Z,89.07
2017-10-17T12:31:48.875Z,89.07
2017-10-17T12:32:48.848Z,89.16
2017-10-17T12:33:48.851Z,89.16
2017-10-17T12:34:48.806Z,89.12
2017-10-17T12:35:48.786Z,88.97
2017-10-17T12:36:48.770Z,89.16
2017-10-17T12:37:48.752Z,89.16
2017-10-17T12:38:48.737Z,89.16
2017-10-17T12:39:48.711Z,89.22
2017-10-17T12:40:48.689Z,89.16
2017-10-17T12:41:48.672Z,89.07
2017-10-17T12:42:48.655Z,88.93
2017-10-17T12:43:48.622Z,89.16
2017-10-17T12:44:48.609Z,89.22
2017-10-17T12:45:48.599Z,89.36
2017-10-17T12:46:48.569Z,89.12
2017-10-17T12:47:48.576Z,89.22
2017-10-17T12:48:48.531Z,89.12
2017-10-17T12:49:48.511Z,89.12
2017-10-17T12:50:48.492Z,89.12
2017-10-17T12:51:48.477Z,89.22
2017-10-17T12:52:48.451Z,89.12
2017-10-17T12:53:48.431Z,88.97